Main page


Airports :

Warsaw, Poland

Warsaw Chopin Airport

latitude: 52-10N, longitude: 020-58E, elevation: 106 m

Current weather observation

The report was made 17 minutes ago, at 23:00 UTC
Wind 3 kt from the South
Temperature -1°C
Humidity 69%
Pressure 1009 hPa
Visibility 10 km or more
no clouds below 1500 m and no cumulonimbus

METAR: EPWA 222300Z 19003KT CAVOK M01/M06 Q1009 NOSIG

Time: 00:17 (23:17 UTC)


The report was made 5 hours and 47 minutes ago, at 17:30 UTC
Forecast valid from 22 at 18 UTC to 23 at 18 UTC
Wind 4 kt from the South/Southwest
Visibility 10 km or more
no clouds below 1500 m and no cumulonimbus
from 23 at 01 UTC to 23 at 03 UTC
Broken clouds at a height of 1000 ft
Probability 40% :
from 23 at 03 UTC to 23 at 12 UTC
Visibility: 4000 m
Broken clouds at a height of 700 ft
light snow, light snow, rain, mist

TAF: EPWA 221730Z 2218/2318 20004KT CAVOK BECMG 2301/2303 BKN010 PROB40 TEMPO 2303/2312 4000 -SN -SNRA BR BKN007

Weather observations and forecasts of more than 4000 airports (METAR and TAF reports).

The available stations are represented by yellow and red dots on the map.

Hover mouse over dot to see the name of the station.

Then click to see weather observations and forecasts.

To change the map : click on the green buttons with a black cross to zoom in, on the green button with a dash to zoom out, or on the green arrows for adjacent maps.